Time,TemperatureF,DewpointF,PressureIn,WindDirection,WindDirectionDegrees,WindSpeedMPH,WindSpeedGustMPH,Humidity,HourlyPrecipIn,Conditions,Clouds,dailyrainin,SoftwareType,DateUTC
2013-01-24 00:00:00,12.9,1.3,30.22,NW,317,0.0,0.0,59,0.00,,---,0.00,VWS V14.00,2013-01-24 05:00:00,
2013-01-24 00:02:00,12.8,1.2,30.21,NW,317,0.0,0.0,59,0.00,,---,0.00,VWS V14.00,2013-01-24 05:02:00,
2013-01-24 00:07:00,12.7,1.1,30.21,NW,317,0.0,0.0,59,0.00,,---,0.00,VWS V14.00,2013-01-24 05:07:00,
2013-01-24 00:12:00,12.6,1.0,30.21,NW,317,0.0,0.0,59,0.00,,---,0.00,VWS V14.00,2013-01-24 05:12:00,
2013-01-24 00:17:00,12.5,1.3,30.21,NW,317,0.0,0.0,60,0.00,,---,0.00,VWS V14.00,2013-01-24 05:17:00,
2013-01-24 00:22:00,12.5,1.6,30.21,NW,317,0.0,0.0,61,0.00,,---,0.00,VWS V14.00,2013-01-24 05:22:00,
2013-01-24 00:27:00,12.3,1.4,30.20,NW,317,0.0,0.0,61,0.00,,---,0.00,VWS V14.00,2013-01-24 05:27:00,
2013-01-24 00:32:00,12.2,1.3,30.20,NW,317,0.0,0.0,61,0.00,,---,0.00,VWS V14.00,2013-01-24 05:32:00,
2013-01-24 00:37:00,12.2,1.3,30.20,NW,317,0.0,0.0,61,0.00,,---,0.00,VWS V14.00,2013-01-24 05:37:00,
2013-01-24 00:42:00,12.0,1.5,30.20,NW,317,0.0,0.0,62,0.00,,---,0.00,VWS V14.00,2013-01-24 05:42:00,
2013-01-24 00:47:00,11.8,1.3,30.20,NW,317,0.0,0.0,62,0.00,,---,0.00,VWS V14.00,2013-01-24 05:47:00,
2013-01-24 00:52:00,11.7,1.2,30.20,NW,317,0.0,0.0,62,0.00,,---,0.00,VWS V14.00,2013-01-24 05:52:00,
2013-01-24 00:57:00,11.5,1.4,30.19,NW,317,0.0,0.0,63,0.00,,---,0.00,VWS V14.00,2013-01-24 05:57:00,
2013-01-24 01:02:00,11.4,1.3,30.19,NW,317,0.0,0.0,63,0.00,,---,0.00,VWS V14.00,2013-01-24 06:02:00,
2013-01-24 01:07:00,11.2,1.4,30.19,NW,317,0.0,0.0,64,0.00,,---,0.00,VWS V14.00,2013-01-24 06:07:00,
2013-01-24 01:12:00,11.1,1.6,30.19,NW,317,0.0,0.0,65,0.00,,---,0.00,VWS V14.00,2013-01-24 06:12:00,
2013-01-24 01:17:00,11.0,1.9,30.19,NW,317,0.0,0.0,66,0.00,,---,0.00,VWS V14.00,2013-01-24 06:17:00,
2013-01-24 01:22:00,10.9,1.8,30.19,NW,317,0.0,0.0,66,0.00,,---,0.00,VWS V14.00,2013-01-24 06:22:00,
2013-01-24 01:27:00,10.8,2.0,30.19,NW,317,0.0,0.0,67,0.00,,---,0.00,VWS V14.00,2013-01-24 06:27:00,
2013-01-24 01:32:00,10.5,1.7,30.19,NW,317,0.0,0.0,67,0.00,,---,0.00,VWS V14.00,2013-01-24 06:32:00,
2013-01-24 01:37:00,10.4,1.6,30.19,NW,317,0.0,0.0,67,0.00,,---,0.00,VWS V14.00,2013-01-24 06:37:00,
2013-01-24 01:42:00,10.2,1.4,30.18,NW,317,0.0,0.0,67,0.00,,---,0.00,VWS V14.00,2013-01-24 06:42:00,
2013-01-24 01:47:00,10.0,1.6,30.18,NW,317,0.0,0.0,68,0.00,,---,0.00,VWS V14.00,2013-01-24 06:47:00,
2013-01-24 01:52:00,9.9,1.5,30.18,NW,317,0.0,0.0,68,0.00,,---,0.00,VWS V14.00,2013-01-24 06:52:00,
2013-01-24 01:57:00,9.8,1.4,30.18,NW,317,0.0,0.0,68,0.00,,---,0.00,VWS V14.00,2013-01-24 06:57:00,
2013-01-24 02:02:00,9.7,1.6,30.18,NW,317,0.0,0.0,69,0.00,,---,0.00,VWS V14.00,2013-01-24 07:02:00,
2013-01-24 02:07:00,9.6,1.5,30.18,NW,317,0.0,0.0,69,0.00,,---,0.00,VWS V14.00,2013-01-24 07:07:00,
2013-01-24 02:12:00,9.6,1.8,30.18,NW,317,0.0,0.0,70,0.00,,---,0.00,VWS V14.00,2013-01-24 07:12:00,
2013-01-24 02:17:00,9.6,1.8,30.18,NW,317,0.0,0.0,70,0.00,,---,0.00,VWS V14.00,2013-01-24 07:17:00,
2013-01-24 02:22:00,9.5,2.0,30.17,NW,317,0.0,0.0,71,0.00,,---,0.00,VWS V14.00,2013-01-24 07:22:00,
2013-01-24 02:27:00,9.5,2.0,30.17,NW,317,0.0,0.0,71,0.00,,---,0.00,VWS V14.00,2013-01-24 07:27:00,
2013-01-24 02:32:00,9.3,1.8,30.17,NW,324,0.0,3.0,71,0.00,,---,0.00,VWS V14.00,2013-01-24 07:32:00,
2013-01-24 02:37:00,9.2,2.0,30.17,NW,324,0.0,0.0,72,0.00,,---,0.00,VWS V14.00,2013-01-24 07:37:00,
2013-01-24 02:42:00,9.2,2.0,30.17,NW,324,0.0,0.0,72,0.00,,---,0.00,VWS V14.00,2013-01-24 07:42:00,
2013-01-24 02:47:00,9.1,1.9,30.17,NW,324,0.0,0.0,72,0.00,,---,0.00,VWS V14.00,2013-01-24 07:47:00,
2013-01-24 02:52:00,9.1,1.9,30.17,NW,324,0.0,0.0,72,0.00,,---,0.00,VWS V14.00,2013-01-24 07:52:00,
2013-01-24 02:57:00,9.0,1.8,30.16,NW,324,0.0,0.0,72,0.00,,---,0.00,VWS V14.00,2013-01-24 07:57:00,
2013-01-24 03:02:00,9.0,2.1,30.16,NW,324,0.0,0.0,73,0.00,,---,0.00,VWS V14.00,2013-01-24 08:02:00,
2013-01-24 03:07:00,9.0,2.1,30.16,NW,324,0.0,0.0,73,0.00,,---,0.00,VWS V14.00,2013-01-24 08:07:00,
2013-01-24 03:12:00,9.0,2.4,30.16,NW,324,0.0,0.0,74,0.00,,---,0.00,VWS V14.00,2013-01-24 08:12:00,
2013-01-24 03:17:00,8.9,2.3,30.16,NW,324,0.0,0.0,74,0.00,,---,0.00,VWS V14.00,2013-01-24 08:17:00,
2013-01-24 03:22:00,8.8,2.2,30.16,NW,324,0.0,0.0,74,0.00,,---,0.00,VWS V14.00,2013-01-24 08:22:00,
2013-01-24 03:27:00,8.7,2.1,30.16,NW,324,0.0,0.0,74,0.00,,---,0.00,VWS V14.00,2013-01-24 08:27:00,
2013-01-24 03:32:00,8.6,2.3,30.16,NW,324,0.0,0.0,75,0.00,,---,0.00,VWS V14.00,2013-01-24 08:32:00,
2013-01-24 03:37:00,8.5,2.2,30.16,NW,324,0.0,0.0,75,0.00,,---,0.00,VWS V14.00,2013-01-24 08:37:00,
2013-01-24 03:42:00,8.4,2.1,30.16,NW,324,0.0,0.0,75,0.00,,---,0.00,VWS V14.00,2013-01-24 08:42:00,
2013-01-24 03:47:00,8.4,2.1,30.16,NW,324,0.0,0.0,75,0.00,,---,0.00,VWS V14.00,2013-01-24 08:47:00,
2013-01-24 03:52:00,8.4,2.4,30.16,NW,324,0.0,0.0,76,0.00,,---,0.00,VWS V14.00,2013-01-24 08:52:00,
2013-01-24 03:57:00,8.4,2.1,30.16,NW,324,0.0,0.0,75,0.00,,---,0.00,VWS V14.00,2013-01-24 08:57:00,
2013-01-24 04:02:00,8.5,2.5,30.17,NW,324,0.0,0.0,76,0.00,,---,0.00,VWS V14.00,2013-01-24 09:02:00,
2013-01-24 04:07:00,8.6,2.6,30.16,NW,324,0.0,0.0,76,0.00,,---,0.00,VWS V14.00,2013-01-24 09:07:00,
2013-01-24 04:12:00,8.7,3.0,30.17,NW,324,0.0,0.0,77,0.00,,---,0.00,VWS V14.00,2013-01-24 09:12:00,
2013-01-24 04:17:00,8.7,3.0,30.16,NW,324,0.0,0.0,77,0.00,,---,0.00,VWS V14.00,2013-01-24 09:17:00,
2013-01-24 04:22:00,8.7,3.0,30.16,NW,324,0.0,0.0,77,0.00,,---,0.00,VWS V14.00,2013-01-24 09:22:00,
2013-01-24 04:27:00,8.6,2.9,30.16,NW,324,0.0,0.0,77,0.00,,---,0.00,VWS V14.00,2013-01-24 09:27:00,
2013-01-24 04:32:00,8.7,3.3,30.16,NW,324,0.0,0.0,78,0.00,,---,0.00,VWS V14.00,2013-01-24 09:32:00,
2013-01-24 04:37:00,8.8,3.4,30.17,NW,324,0.0,0.0,78,0.00,,---,0.00,VWS V14.00,2013-01-24 09:37:00,
2013-01-24 04:42:00,8.9,3.5,30.17,NW,324,0.0,0.0,78,0.00,,---,0.00,VWS V14.00,2013-01-24 09:42:00,
2013-01-24 04:47:00,9.0,3.8,30.16,NW,324,0.0,0.0,79,0.00,,---,0.00,VWS V14.00,2013-01-24 09:47:00,
2013-01-24 04:52:00,9.1,3.9,30.16,NW,324,0.0,0.0,79,0.00,,---,0.00,VWS V14.00,2013-01-24 09:52:00,
2013-01-24 04:57:00,9.1,3.9,30.17,NW,324,0.0,0.0,79,0.00,,---,0.00,VWS V14.00,2013-01-24 09:57:00,
2013-01-24 05:02:00,9.2,4.0,30.17,NW,324,0.0,0.0,79,0.00,,---,0.00,VWS V14.00,2013-01-24 10:02:00,
2013-01-24 05:07:00,9.4,4.2,30.17,NW,324,0.0,0.0,79,0.00,,---,0.00,VWS V14.00,2013-01-24 10:07:00,
2013-01-24 05:12:00,9.6,4.7,30.17,NW,324,0.0,0.0,80,0.00,,---,0.00,VWS V14.00,2013-01-24 10:12:00,
2013-01-24 05:17:00,10.2,5.3,30.17,NW,324,0.0,2.0,80,0.00,,---,0.00,VWS V14.00,2013-01-24 10:17:00,
2013-01-24 05:22:00,10.8,5.9,30.17,NW,324,1.0,2.0,80,0.00,,---,0.00,VWS V14.00,2013-01-24 10:22:00,
2013-01-24 05:27:00,11.4,6.2,30.18,NW,325,0.0,4.0,79,0.00,,---,0.00,VWS V14.00,2013-01-24 10:27:00,
2013-01-24 05:32:00,12.1,6.8,30.17,NW,325,2.0,4.0,79,0.00,,---,0.00,VWS V14.00,2013-01-24 10:32:00,
2013-01-24 05:37:00,12.7,7.2,30.17,North,360,4.0,6.0,78,0.00,,---,0.00,VWS V14.00,2013-01-24 10:37:00,
2013-01-24 05:42:00,13.3,7.2,30.18,NNE,14,5.0,8.0,76,0.00,,---,0.00,VWS V14.00,2013-01-24 10:42:00,
2013-01-24 05:47:00,13.7,7.3,30.18,NNW,344,4.0,6.0,75,0.00,,---,0.00,VWS V14.00,2013-01-24 10:47:00,
2013-01-24 05:52:00,13.9,6.9,30.18,North,359,7.0,8.0,73,0.00,,---,0.00,VWS V14.00,2013-01-24 10:52:00,
2013-01-24 05:57:00,14.1,6.8,30.18,North,356,3.0,8.0,72,0.00,,---,0.00,VWS V14.00,2013-01-24 10:57:00,
2013-01-24 06:02:00,14.2,6.5,30.18,NNW,339,4.0,7.0,71,0.00,,---,0.00,VWS V14.00,2013-01-24 11:02:00,
2013-01-24 06:07:00,14.3,6.6,30.19,NW,325,8.0,8.0,71,0.00,,---,0.00,VWS V14.00,2013-01-24 11:07:00,
2013-01-24 06:12:00,14.3,6.3,30.19,NNW,348,6.0,7.0,70,0.00,,---,0.00,VWS V14.00,2013-01-24 11:12:00,
2013-01-24 06:17:00,14.3,6.0,30.19,NNW,343,9.0,9.0,69,0.00,,---,0.00,VWS V14.00,2013-01-24 11:17:00,
2013-01-24 06:22:00,14.4,6.1,30.19,NNW,346,4.0,9.0,69,0.00,,---,0.00,VWS V14.00,2013-01-24 11:22:00,
2013-01-24 06:27:00,14.4,5.8,30.19,North,5,8.0,9.0,68,0.00,,---,0.00,VWS V14.00,2013-01-24 11:27:00,
2013-01-24 06:32:00,14.4,5.5,30.20,NNW,336,9.0,10.0,67,0.00,,---,0.00,VWS V14.00,2013-01-24 11:32:00,
2013-01-24 06:37:00,14.4,5.1,30.20,NNE,15,5.0,8.0,66,0.00,,---,0.00,VWS V14.00,2013-01-24 11:37:00,
2013-01-24 06:42:00,14.4,5.1,30.20,NW,325,5.0,9.0,66,0.00,,---,0.00,VWS V14.00,2013-01-24 11:42:00,
2013-01-24 06:47:00,14.4,4.8,30.20,NNW,337,4.0,6.0,65,0.00,,---,0.00,VWS V14.00,2013-01-24 11:47:00,
2013-01-24 06:52:00,14.4,4.8,30.20,NNW,341,4.0,7.0,65,0.00,,---,0.00,VWS V14.00,2013-01-24 11:52:00,
2013-01-24 06:57:00,14.4,4.8,30.20,NNW,348,5.0,9.0,65,0.00,,---,0.00,VWS V14.00,2013-01-24 11:57:00,
2013-01-24 07:02:00,14.4,4.8,30.20,North,350,4.0,7.0,65,0.00,,---,0.00,VWS V14.00,2013-01-24 12:02:00,
2013-01-24 07:07:00,14.4,4.8,30.20,NNW,330,7.0,9.0,65,0.00,,---,0.00,VWS V14.00,2013-01-24 12:07:00,
2013-01-24 07:12:00,14.4,4.8,30.20,NNW,338,4.0,7.0,65,0.00,,---,0.00,VWS V14.00,2013-01-24 12:12:00,
2013-01-24 07:17:00,14.4,4.8,30.20,NNE,12,7.0,9.0,65,0.00,,---,0.00,VWS V14.00,2013-01-24 12:17:00,
2013-01-24 07:22:00,14.4,4.8,30.20,North,356,5.0,7.0,65,0.00,,---,0.00,VWS V14.00,2013-01-24 12:22:00,
2013-01-24 07:27:00,14.4,5.1,30.21,North,9,5.0,7.0,66,0.00,,---,0.00,VWS V14.00,2013-01-24 12:27:00,
2013-01-24 07:32:00,14.3,4.7,30.21,North,351,7.0,7.0,65,0.00,,---,0.00,VWS V14.00,2013-01-24 12:32:00,
2013-01-24 07:37:00,14.3,5.0,30.21,North,1,8.0,8.0,66,0.00,,---,0.00,VWS V14.00,2013-01-24 12:37:00,
2013-01-24 07:42:00,14.3,5.0,30.21,NNW,347,5.0,7.0,66,0.00,,---,0.00,VWS V14.00,2013-01-24 12:42:00,
2013-01-24 07:47:00,14.3,5.0,30.21,NW,326,5.0,6.0,66,0.00,,---,0.00,VWS V14.00,2013-01-24 12:47:00,
2013-01-24 07:52:00,14.3,5.0,30.21,NNW,331,5.0,7.0,66,0.00,,---,0.00,VWS V14.00,2013-01-24 12:52:00,
2013-01-24 07:57:00,14.3,5.0,30.21,North,11,5.0,11.0,66,0.00,,---,0.00,VWS V14.00,2013-01-24 12:57:00,
2013-01-24 08:02:00,14.4,5.1,30.22,NNW,344,7.0,11.0,66,0.00,,---,0.00,VWS V14.00,2013-01-24 13:02:00,
2013-01-24 08:07:00,14.4,5.1,30.22,North,357,5.0,12.0,66,0.00,,---,0.00,VWS V14.00,2013-01-24 13:07:00,
2013-01-24 08:12:00,14.5,5.2,30.22,North,7,8.0,8.0,66,0.00,,---,0.00,VWS V14.00,2013-01-24 13:12:00,
2013-01-24 08:17:00,14.5,5.2,30.22,North,356,7.0,8.0,66,0.00,,---,0.00,VWS V14.00,2013-01-24 13:17:00,
2013-01-24 08:22:00,14.6,5.3,30.22,NNE,22,12.0,12.0,66,0.00,,---,0.00,VWS V14.00,2013-01-24 13:22:00,
2013-01-24 08:27:00,14.8,5.5,30.22,NNW,338,7.0,10.0,66,0.00,,---,0.00,VWS V14.00,2013-01-24 13:27:00,
2013-01-24 08:32:00,14.9,5.9,30.22,North,356,11.0,14.0,67,0.00,,---,0.00,VWS V14.00,2013-01-24 13:32:00,
2013-01-24 08:37:00,15.1,5.8,30.22,NW,322,8.0,9.0,66,0.00,,---,0.00,VWS V14.00,2013-01-24 13:37:00,
2013-01-24 08:42:00,15.4,6.1,30.22,NNE,12,8.0,9.0,66,0.00,,---,0.00,VWS V14.00,2013-01-24 13:42:00,
2013-01-24 08:47:00,15.5,6.2,30.22,NNE,33,6.0,12.0,66,0.00,,---,0.00,VWS V14.00,2013-01-24 13:47:00,
2013-01-24 08:52:00,15.7,6.0,30.22,NNW,327,7.0,9.0,65,0.00,,---,0.00,VWS V14.00,2013-01-24 13:52:00,
2013-01-24 08:57:00,15.9,5.9,30.22,NNW,342,3.0,8.0,64,0.00,,---,0.00,VWS V14.00,2013-01-24 13:57:00,
2013-01-24 09:02:00,16.2,6.2,30.22,NW,313,11.0,12.0,64,0.00,,---,0.00,VWS V14.00,2013-01-24 14:02:00,
2013-01-24 09:07:00,16.3,5.9,30.22,NNW,338,10.0,18.0,63,0.00,,---,0.00,VWS V14.00,2013-01-24 14:07:00,
2013-01-24 09:12:00,16.5,5.4,30.22,NE,41,12.0,16.0,61,0.00,,---,0.00,VWS V14.00,2013-01-24 14:12:00,
2013-01-24 09:17:00,16.6,5.2,30.22,North,8,14.0,15.0,60,0.00,,---,0.00,VWS V14.00,2013-01-24 14:17:00,
2013-01-24 09:22:00,16.8,5.3,30.23,NNW,336,13.0,16.0,60,0.00,,---,0.00,VWS V14.00,2013-01-24 14:22:00,
2013-01-24 09:27:00,17.0,5.2,30.23,NNE,19,10.0,15.0,59,0.00,,---,0.00,VWS V14.00,2013-01-24 14:27:00,
2013-01-24 09:32:00,17.1,5.2,30.23,NNW,328,9.0,20.0,59,0.00,,---,0.00,VWS V14.00,2013-01-24 14:32:00,
2013-01-24 09:37:00,17.2,5.0,30.23,NNE,16,12.0,24.0,58,0.00,,---,0.00,VWS V14.00,2013-01-24 14:37:00,
2013-01-24 09:42:00,17.0,4.4,30.23,North,358,9.0,21.0,57,0.00,,---,0.00,VWS V14.00,2013-01-24 14:42:00,
2013-01-24 09:47:00,17.4,4.4,30.23,North,358,12.0,17.0,56,0.00,,---,0.00,VWS V14.00,2013-01-24 14:47:00,
2013-01-24 09:52:00,17.8,4.8,30.24,North,6,14.0,15.0,56,0.00,,---,0.00,VWS V14.00,2013-01-24 14:52:00,
2013-01-24 09:57:00,18.0,4.6,30.24,North,354,16.0,17.0,55,0.00,,---,0.00,VWS V14.00,2013-01-24 14:57:00,
2013-01-24 10:02:00,17.5,3.7,30.24,NE,36,11.0,20.0,54,0.00,,---,0.00,VWS V14.00,2013-01-24 15:02:00,
2013-01-24 10:07:00,17.4,4.0,30.24,NNE,16,10.0,18.0,55,0.00,,---,0.00,VWS V14.00,2013-01-24 15:07:00,
2013-01-24 10:12:00,17.5,4.1,30.24,NNW,346,8.0,18.0,55,0.00,,---,0.00,VWS V14.00,2013-01-24 15:12:00,
2013-01-24 10:17:00,17.8,4.4,30.24,NNW,336,11.0,22.0,55,0.00,,---,0.00,VWS V14.00,2013-01-24 15:17:00,
2013-01-24 10:22:00,17.7,4.3,30.24,North,349,12.0,20.0,55,0.00,,---,0.00,VWS V14.00,2013-01-24 15:22:00,
2013-01-24 10:27:00,18.1,4.3,30.25,NW,323,7.0,17.0,54,0.00,,---,0.00,VWS V14.00,2013-01-24 15:27:00,
2013-01-24 10:32:00,18.0,2.9,30.25,NNE,22,15.0,22.0,51,0.00,,---,0.00,VWS V14.00,2013-01-24 15:32:00,
2013-01-24 10:37:00,17.9,2.8,30.25,NNW,334,15.0,21.0,51,0.00,,---,0.00,VWS V14.00,2013-01-24 15:37:00,
2013-01-24 10:42:00,17.8,2.3,30.25,NNW,339,15.0,20.0,50,0.00,,---,0.00,VWS V14.00,2013-01-24 15:42:00,
2013-01-24 10:47:00,17.9,2.4,30.25,North,360,15.0,18.0,50,0.00,,---,0.00,VWS V14.00,2013-01-24 15:47:00,
2013-01-24 10:52:00,17.9,2.4,30.25,NNW,340,17.0,19.0,50,0.00,,---,0.00,VWS V14.00,2013-01-24 15:52:00,
2013-01-24 10:57:00,18.4,2.9,30.25,North,9,18.0,20.0,50,0.00,,---,0.00,VWS V14.00,2013-01-24 15:57:00,
2013-01-24 11:02:00,18.8,3.2,30.25,NW,321,9.0,12.0,50,0.00,,---,0.00,VWS V14.00,2013-01-24 16:02:00,
2013-01-24 11:07:00,18.9,2.0,30.24,NW,311,10.0,24.0,47,0.00,,---,0.00,VWS V14.00,2013-01-24 16:07:00,
2013-01-24 11:12:00,18.7,1.4,30.25,NW,311,3.0,24.0,46,0.00,,---,0.00,VWS V14.00,2013-01-24 16:12:00,
2013-01-24 11:17:00,18.6,0.8,30.24,NW,325,12.0,23.0,45,0.00,,---,0.00,VWS V14.00,2013-01-24 16:17:00,
2013-01-24 11:22:00,18.7,0.9,30.24,North,357,5.0,13.0,45,0.00,,---,0.00,VWS V14.00,2013-01-24 16:22:00,
2013-01-24 11:27:00,19.3,1.0,30.24,North,359,14.0,16.0,44,0.00,,---,0.00,VWS V14.00,2013-01-24 16:27:00,
2013-01-24 11:32:00,19.4,0.6,30.24,North,350,15.0,22.0,43,0.00,,---,0.00,VWS V14.00,2013-01-24 16:32:00,
2013-01-24 11:37:00,19.3,0.5,30.23,WNW,292,12.0,21.0,43,0.00,,---,0.00,VWS V14.00,2013-01-24 16:37:00,
2013-01-24 11:42:00,19.6,0.2,30.23,North,349,15.0,17.0,42,0.00,,---,0.00,VWS V14.00,2013-01-24 16:42:00,
2013-01-24 11:47:00,19.7,0.8,30.23,NNW,337,11.0,19.0,43,0.00,,---,0.00,VWS V14.00,2013-01-24 16:47:00,
2013-01-24 11:52:00,19.8,0.9,30.23,NNW,333,12.0,20.0,43,0.00,,---,0.00,VWS V14.00,2013-01-24 16:52:00,
2013-01-24 11:57:00,20.2,1.8,30.23,NNE,28,9.0,15.0,44,0.00,,---,0.00,VWS V14.00,2013-01-24 16:57:00,
2013-01-24 12:02:00,20.4,1.0,30.23,NW,309,14.0,22.0,42,0.00,,---,0.00,VWS V14.00,2013-01-24 17:02:00,
2013-01-24 12:07:00,20.3,1.4,30.22,North,350,12.0,22.0,43,0.00,,---,0.00,VWS V14.00,2013-01-24 17:07:00,
2013-01-24 12:12:00,20.3,0.4,30.23,NW,321,12.0,24.0,41,0.00,,---,0.00,VWS V14.00,2013-01-24 17:12:00,
2013-01-24 12:17:00,20.3,0.4,30.23,NNE,27,12.0,17.0,41,0.00,,---,0.00,VWS V14.00,2013-01-24 17:17:00,
2013-01-24 12:22:00,20.5,0.6,30.23,NNE,17,10.0,20.0,41,0.00,,---,0.00,VWS V14.00,2013-01-24 17:22:00,
2013-01-24 12:27:00,20.7,0.2,30.23,NNW,339,12.0,19.0,40,0.00,,---,0.00,VWS V14.00,2013-01-24 17:27:00,
2013-01-24 12:32:00,20.7,0.2,30.23,NNW,346,13.0,25.0,40,0.00,,---,0.00,VWS V14.00,2013-01-24 17:32:00,
2013-01-24 12:37:00,20.6,0.1,30.23,NW,319,17.0,25.0,40,0.00,,---,0.00,VWS V14.00,2013-01-24 17:37:00,
2013-01-24 12:42:00,20.8,-0.2,30.24,North,349,15.0,24.0,39,0.00,,---,0.00,VWS V14.00,2013-01-24 17:42:00,
2013-01-24 12:47:00,21.0,0.5,30.24,North,359,24.0,24.0,40,0.00,,---,0.00,VWS V14.00,2013-01-24 17:47:00,
2013-01-24 12:52:00,21.0,0.5,30.23,WNW,290,7.0,14.0,40,0.00,,---,0.00,VWS V14.00,2013-01-24 17:52:00,
2013-01-24 12:57:00,21.3,0.8,30.24,NW,321,9.0,22.0,40,0.00,,---,0.00,VWS V14.00,2013-01-24 17:57:00,
2013-01-24 13:02:00,21.1,0.0,30.23,ENE,64,6.0,23.0,39,0.00,,---,0.00,VWS V14.00,2013-01-24 18:02:00,
2013-01-24 13:07:00,21.3,0.8,30.23,North,360,15.0,25.0,40,0.00,,---,0.00,VWS V14.00,2013-01-24 18:07:00,
2013-01-24 13:12:00,21.4,0.3,30.24,NNW,345,7.0,16.0,39,0.00,,---,0.00,VWS V14.00,2013-01-24 18:12:00,
2013-01-24 13:17:00,21.6,0.5,30.24,NNW,336,17.0,24.0,39,0.00,,---,0.00,VWS V14.00,2013-01-24 18:17:00,
2013-01-24 13:22:00,21.5,0.4,30.24,NNE,14,12.0,27.0,39,0.00,,---,0.00,VWS V14.00,2013-01-24 18:22:00,
2013-01-24 13:27:00,21.6,1.0,30.24,NNW,332,6.0,19.0,40,0.00,,---,0.00,VWS V14.00,2013-01-24 18:27:00,
2013-01-24 13:32:00,21.7,0.6,30.24,NE,36,10.0,24.0,39,0.00,,---,0.00,VWS V14.00,2013-01-24 18:32:00,
2013-01-24 13:37:00,21.6,0.5,30.23,NE,46,12.0,23.0,39,0.00,,---,0.00,VWS V14.00,2013-01-24 18:37:00,
2013-01-24 13:42:00,22.0,0.8,30.23,NNW,347,11.0,22.0,39,0.00,,---,0.00,VWS V14.00,2013-01-24 18:42:00,
2013-01-24 13:47:00,22.0,0.3,30.23,NW,310,19.0,27.0,38,0.00,,---,0.00,VWS V14.00,2013-01-24 18:47:00,
2013-01-24 13:52:00,22.3,1.1,30.24,NNE,25,6.0,26.0,39,0.00,,---,0.00,VWS V14.00,2013-01-24 18:52:00,
2013-01-24 13:57:00,22.4,0.6,30.24,NNW,327,20.0,22.0,38,0.00,,---,0.00,VWS V14.00,2013-01-24 18:57:00,
2013-01-24 14:02:00,22.2,0.5,30.24,NW,323,11.0,21.0,38,0.00,,---,0.00,VWS V14.00,2013-01-24 19:02:00,
2013-01-24 14:07:00,22.3,0.6,30.24,NNW,340,17.0,19.0,38,0.00,,---,0.00,VWS V14.00,2013-01-24 19:07:00,
2013-01-24 14:12:00,22.6,0.3,30.24,NNW,338,10.0,24.0,37,0.00,,---,0.00,VWS V14.00,2013-01-24 19:12:00,
2013-01-24 14:17:00,22.7,0.3,30.24,NNW,345,11.0,20.0,37,0.00,,---,0.00,VWS V14.00,2013-01-24 19:17:00,
2013-01-24 14:22:00,23.0,1.2,30.24,NNW,337,12.0,18.0,38,0.00,,---,0.00,VWS V14.00,2013-01-24 19:22:00,
2013-01-24 14:27:00,23.3,0.3,30.24,NNW,340,25.0,25.0,36,0.00,,---,0.00,VWS V14.00,2013-01-24 19:27:00,
2013-01-24 14:32:00,22.9,-0.1,30.24,NW,312,19.0,21.0,36,0.00,,---,0.00,VWS V14.00,2013-01-24 19:32:00,
2013-01-24 14:37:00,23.1,0.1,30.24,NNW,340,13.0,25.0,36,0.00,,---,0.00,VWS V14.00,2013-01-24 19:37:00,
2013-01-24 14:42:00,23.3,0.3,30.24,NNW,335,17.0,21.0,36,0.00,,---,0.00,VWS V14.00,2013-01-24 19:42:00,
2013-01-24 14:47:00,23.5,0.5,30.24,NNW,344,7.0,18.0,36,0.00,,---,0.00,VWS V14.00,2013-01-24 19:47:00,
2013-01-24 14:52:00,23.5,0.5,30.24,North,350,14.0,20.0,36,0.00,,---,0.00,VWS V14.00,2013-01-24 19:52:00,
2013-01-24 14:57:00,23.6,0.6,30.25,NW,317,9.0,16.0,36,0.00,,---,0.00,VWS V14.00,2013-01-24 19:57:00,
2013-01-24 15:02:00,23.7,-0.6,30.25,North,11,16.0,27.0,34,0.00,,---,0.00,VWS V14.00,2013-01-24 20:02:00,
2013-01-24 15:07:00,23.6,-0.6,30.25,WNW,300,11.0,16.0,34,0.00,,---,0.00,VWS V14.00,2013-01-24 20:07:00,
2013-01-24 15:12:00,23.5,-0.7,30.25,NNW,345,7.0,14.0,34,0.00,,---,0.00,VWS V14.00,2013-01-24 20:12:00,
2013-01-24 15:17:00,24.0,0.3,30.26,North,352,13.0,19.0,35,0.00,,---,0.00,VWS V14.00,2013-01-24 20:17:00,
2013-01-24 15:22:00,23.6,-0.6,30.26,NNW,344,9.0,23.0,34,0.00,,---,0.00,VWS V14.00,2013-01-24 20:22:00,
2013-01-24 15:27:00,23.3,-0.9,30.26,NW,313,13.0,20.0,34,0.00,,---,0.00,VWS V14.00,2013-01-24 20:27:00,
2013-01-24 15:32:00,23.2,-0.4,30.26,North,350,10.0,19.0,35,0.00,,---,0.00,VWS V14.00,2013-01-24 20:32:00,
2013-01-24 15:37:00,23.2,-0.4,30.26,North,350,22.0,26.0,35,0.00,,---,0.00,VWS V14.00,2013-01-24 20:37:00,
2013-01-24 15:42:00,23.0,-0.6,30.26,North,356,16.0,18.0,35,0.00,,---,0.00,VWS V14.00,2013-01-24 20:42:00,
2013-01-24 15:47:00,23.0,0.0,30.26,NW,309,4.0,20.0,36,0.00,,---,0.00,VWS V14.00,2013-01-24 20:47:00,
2013-01-24 15:52:00,23.1,0.7,30.26,NW,322,14.0,14.0,37,0.00,,---,0.00,VWS V14.00,2013-01-24 20:52:00,
2013-01-24 15:57:00,23.1,0.7,30.27,WSW,238,6.0,23.0,37,0.00,,---,0.00,VWS V14.00,2013-01-24 20:57:00,
2013-01-24 16:02:00,22.9,0.5,30.28,WNW,286,16.0,19.0,37,0.00,,---,0.00,VWS V14.00,2013-01-24 21:02:00,
2013-01-24 16:07:00,22.8,0.4,30.28,NNW,331,7.0,17.0,37,0.00,,---,0.00,VWS V14.00,2013-01-24 21:07:00,
2013-01-24 16:12:00,22.7,0.3,30.28,NW,319,12.0,19.0,37,0.00,,---,0.00,VWS V14.00,2013-01-24 21:12:00,
2013-01-24 16:17:00,22.4,0.1,30.28,WNW,300,9.0,21.0,37,0.00,,---,0.00,VWS V14.00,2013-01-24 21:17:00,
2013-01-24 16:22:00,22.2,-0.1,30.28,NNW,327,16.0,16.0,37,0.00,,---,0.00,VWS V14.00,2013-01-24 21:22:00,
2013-01-24 16:27:00,22.1,-0.2,30.28,NW,323,12.0,17.0,37,0.00,,---,0.00,VWS V14.00,2013-01-24 21:27:00,
2013-01-24 16:32:00,22.1,-0.2,30.28,NW,312,15.0,17.0,37,0.00,,---,0.00,VWS V14.00,2013-01-24 21:32:00,
2013-01-24 16:37:00,22.0,0.3,30.29,WNW,298,10.0,16.0,38,0.00,,---,0.00,VWS V14.00,2013-01-24 21:37:00,
2013-01-24 16:42:00,22.0,0.3,30.29,NW,326,6.0,8.0,38,0.00,,---,0.00,VWS V14.00,2013-01-24 21:42:00,
2013-01-24 16:47:00,22.0,0.3,30.29,WNW,296,18.0,21.0,38,0.00,,---,0.00,VWS V14.00,2013-01-24 21:47:00,
2013-01-24 16:52:00,21.8,0.1,30.29,WNW,297,6.0,16.0,38,0.00,,---,0.00,VWS V14.00,2013-01-24 21:52:00,
2013-01-24 16:57:00,21.7,0.0,30.30,NW,315,13.0,13.0,38,0.00,,---,0.00,VWS V14.00,2013-01-24 21:57:00,
2013-01-24 17:02:00,21.6,0.5,30.30,NNW,334,6.0,12.0,39,0.00,,---,0.00,VWS V14.00,2013-01-24 22:02:00,
2013-01-24 17:07:00,21.6,0.5,30.30,West,265,5.0,14.0,39,0.00,,---,0.00,VWS V14.00,2013-01-24 22:07:00,
2013-01-24 17:12:00,21.5,0.4,30.30,NNW,342,8.0,11.0,39,0.00,,---,0.00,VWS V14.00,2013-01-24 22:12:00,
2013-01-24 17:17:00,21.5,0.9,30.30,North,356,3.0,8.0,40,0.00,,---,0.00,VWS V14.00,2013-01-24 22:17:00,
2013-01-24 17:22:00,21.4,0.8,30.30,NW,317,6.0,14.0,40,0.00,,---,0.00,VWS V14.00,2013-01-24 22:22:00,
2013-01-24 17:27:00,21.4,0.8,30.31,NNW,331,9.0,14.0,40,0.00,,---,0.00,VWS V14.00,2013-01-24 22:27:00,
2013-01-24 17:32:00,21.4,0.8,30.31,North,352,13.0,13.0,40,0.00,,---,0.00,VWS V14.00,2013-01-24 22:32:00,
2013-01-24 17:37:00,21.5,0.9,30.31,NNE,12,12.0,20.0,40,0.00,,---,0.00,VWS V14.00,2013-01-24 22:37:00,
2013-01-24 17:42:00,21.5,0.9,30.32,West,275,9.0,9.0,40,0.00,,---,0.00,VWS V14.00,2013-01-24 22:42:00,
2013-01-24 17:47:00,21.4,0.8,30.32,NW,323,13.0,16.0,40,0.00,,---,0.00,VWS V14.00,2013-01-24 22:47:00,
2013-01-24 17:52:00,21.4,0.8,30.33,NNW,345,14.0,14.0,40,0.00,,---,0.00,VWS V14.00,2013-01-24 22:52:00,
2013-01-24 17:57:00,21.4,0.8,30.33,NNW,328,11.0,21.0,40,0.00,,---,0.00,VWS V14.00,2013-01-24 22:57:00,
2013-01-24 18:02:00,21.3,0.8,30.33,NNW,340,8.0,15.0,40,0.00,,---,0.00,VWS V14.00,2013-01-24 23:02:00,
2013-01-24 18:07:00,21.3,0.2,30.34,NW,325,18.0,20.0,39,0.00,,---,0.00,VWS V14.00,2013-01-24 23:07:00,
2013-01-24 18:12:00,21.3,0.2,30.33,WNW,290,4.0,14.0,39,0.00,,---,0.00,VWS V14.00,2013-01-24 23:12:00,
2013-01-24 18:17:00,21.2,0.1,30.34,NW,315,12.0,14.0,39,0.00,,---,0.00,VWS V14.00,2013-01-24 23:17:00,
2013-01-24 18:22:00,21.2,0.7,30.34,WNW,289,12.0,17.0,40,0.00,,---,0.00,VWS V14.00,2013-01-24 23:22:00,
2013-01-24 18:27:00,21.2,0.7,30.34,NW,310,16.0,25.0,40,0.00,,---,0.00,VWS V14.00,2013-01-24 23:27:00,
2013-01-24 18:32:00,21.2,0.7,30.34,WNW,288,13.0,24.0,40,0.00,,---,0.00,VWS V14.00,2013-01-24 23:32:00,
2013-01-24 18:37:00,21.1,0.6,30.34,NNE,13,8.0,21.0,40,0.00,,---,0.00,VWS V14.00,2013-01-24 23:37:00,
2013-01-24 18:42:00,21.1,0.6,30.34,NW,324,15.0,17.0,40,0.00,,---,0.00,VWS V14.00,2013-01-24 23:42:00,
2013-01-24 18:47:00,21.0,0.5,30.34,West,280,10.0,19.0,40,0.00,,---,0.00,VWS V14.00,2013-01-24 23:47:00,
2013-01-24 18:52:00,20.9,0.9,30.34,WNW,292,9.0,14.0,41,0.00,,---,0.00,VWS V14.00,2013-01-24 23:52:00,
2013-01-24 18:57:00,20.8,0.8,30.34,WNW,283,11.0,19.0,41,0.00,,---,0.00,VWS V14.00,2013-01-24 23:57:00,
2013-01-24 19:02:00,20.7,0.7,30.35,NW,315,17.0,23.0,41,0.00,,---,0.00,VWS V14.00,2013-01-25 00:02:00,
2013-01-24 19:07:00,20.6,0.6,30.35,West,273,13.0,22.0,41,0.00,,---,0.00,VWS V14.00,2013-01-25 00:07:00,
2013-01-24 19:12:00,20.4,0.5,30.35,West,261,6.0,17.0,41,0.00,,---,0.00,VWS V14.00,2013-01-25 00:12:00,
2013-01-24 19:17:00,20.4,1.0,30.35,NW,323,12.0,22.0,42,0.00,,---,0.00,VWS V14.00,2013-01-25 00:17:00,
2013-01-24 19:22:00,20.4,1.0,30.36,NNE,33,14.0,16.0,42,0.00,,---,0.00,VWS V14.00,2013-01-25 00:22:00,
2013-01-24 19:27:00,20.3,1.4,30.36,NNW,346,10.0,15.0,43,0.00,,---,0.00,VWS V14.00,2013-01-25 00:27:00,
2013-01-24 19:32:00,20.2,1.3,30.36,North,350,13.0,18.0,43,0.00,,---,0.00,VWS V14.00,2013-01-25 00:32:00,
2013-01-24 19:37:00,20.0,1.1,30.37,NW,325,14.0,19.0,43,0.00,,---,0.00,VWS V14.00,2013-01-25 00:37:00,
2013-01-24 19:42:00,20.0,1.1,30.37,NNW,332,18.0,18.0,43,0.00,,---,0.00,VWS V14.00,2013-01-25 00:42:00,
2013-01-24 19:47:00,20.0,1.6,30.37,NW,307,6.0,20.0,44,0.00,,---,0.00,VWS V14.00,2013-01-25 00:47:00,
2013-01-24 19:52:00,19.8,1.4,30.37,WNW,298,9.0,16.0,44,0.00,,---,0.00,VWS V14.00,2013-01-25 00:52:00,
2013-01-24 19:57:00,19.7,1.8,30.36,WNW,286,6.0,16.0,45,0.00,,---,0.00,VWS V14.00,2013-01-25 00:57:00,
2013-01-24 20:02:00,19.5,1.6,30.37,West,278,7.0,11.0,45,0.00,,---,0.00,VWS V14.00,2013-01-25 01:02:00,
2013-01-24 20:07:00,19.3,1.9,30.37,NW,308,8.0,13.0,46,0.00,,---,0.00,VWS V14.00,2013-01-25 01:07:00,
2013-01-24 20:12:00,19.2,1.8,30.37,West,268,14.0,14.0,46,0.00,,---,0.00,VWS V14.00,2013-01-25 01:12:00,
2013-01-24 20:17:00,19.0,1.6,30.37,NW,323,6.0,12.0,46,0.00,,---,0.00,VWS V14.00,2013-01-25 01:17:00,
2013-01-24 20:22:00,18.9,1.5,30.37,NNW,330,12.0,13.0,46,0.00,,---,0.00,VWS V14.00,2013-01-25 01:22:00,
2013-01-24 20:27:00,18.8,1.5,30.37,NNW,329,8.0,16.0,46,0.00,,---,0.00,VWS V14.00,2013-01-25 01:27:00,
2013-01-24 20:32:00,18.7,1.4,30.37,West,275,3.0,14.0,46,0.00,,---,0.00,VWS V14.00,2013-01-25 01:32:00,
2013-01-24 20:37:00,18.6,1.3,30.36,NNW,340,9.0,18.0,46,0.00,,---,0.00,VWS V14.00,2013-01-25 01:37:00,
2013-01-24 20:42:00,18.5,1.2,30.36,NW,322,7.0,14.0,46,0.00,,---,0.00,VWS V14.00,2013-01-25 01:42:00,
2013-01-24 20:47:00,18.4,1.5,30.36,NW,312,3.0,7.0,47,0.00,,---,0.00,VWS V14.00,2013-01-25 01:47:00,
2013-01-24 20:52:00,18.3,1.5,30.37,WNW,303,5.0,12.0,47,0.00,,---,0.00,VWS V14.00,2013-01-25 01:52:00,
2013-01-24 20:57:00,18.1,1.3,30.36,NNW,334,3.0,11.0,47,0.00,,---,0.00,VWS V14.00,2013-01-25 01:57:00,
2013-01-24 21:02:00,18.0,1.6,30.37,NW,313,11.0,11.0,48,0.00,,---,0.00,VWS V14.00,2013-01-25 02:02:00,
2013-01-24 21:07:00,18.0,1.6,30.37,NW,325,6.0,14.0,48,0.00,,---,0.00,VWS V14.00,2013-01-25 02:07:00,
2013-01-24 21:12:00,17.9,1.5,30.37,NW,323,3.0,13.0,48,0.00,,---,0.00,VWS V14.00,2013-01-25 02:12:00,
2013-01-24 21:17:00,17.9,1.5,30.37,West,272,7.0,11.0,48,0.00,,---,0.00,VWS V14.00,2013-01-25 02:17:00,
2013-01-24 21:22:00,17.8,1.9,30.37,WNW,295,6.0,11.0,49,0.00,,---,0.00,VWS V14.00,2013-01-25 02:22:00,
2013-01-24 21:27:00,17.7,1.8,30.37,NW,307,7.0,8.0,49,0.00,,---,0.00,VWS V14.00,2013-01-25 02:27:00,
2013-01-24 21:32:00,17.7,2.2,30.37,WNW,286,7.0,12.0,50,0.00,,---,0.00,VWS V14.00,2013-01-25 02:32:00,
2013-01-24 21:37:00,17.6,2.1,30.38,NW,324,9.0,14.0,50,0.00,,---,0.00,VWS V14.00,2013-01-25 02:37:00,
2013-01-24 21:42:00,17.5,2.5,30.38,WNW,294,3.0,9.0,51,0.00,,---,0.00,VWS V14.00,2013-01-25 02:42:00,
2013-01-24 21:47:00,17.5,2.5,30.38,NW,320,4.0,12.0,51,0.00,,---,0.00,VWS V14.00,2013-01-25 02:47:00,
2013-01-24 21:52:00,17.5,2.5,30.38,WNW,288,10.0,10.0,51,0.00,,---,0.00,VWS V14.00,2013-01-25 02:52:00,
2013-01-24 21:57:00,17.4,2.4,30.38,NNW,332,8.0,10.0,51,0.00,,---,0.00,VWS V14.00,2013-01-25 02:57:00,
2013-01-24 22:02:00,17.3,2.7,30.38,NW,323,3.0,9.0,52,0.00,,---,0.00,VWS V14.00,2013-01-25 03:02:00,
2013-01-24 22:07:00,17.2,2.6,30.38,NNE,15,6.0,9.0,52,0.00,,---,0.00,VWS V14.00,2013-01-25 03:07:00,
2013-01-24 22:12:00,17.2,2.6,30.38,WNW,300,7.0,14.0,52,0.00,,---,0.00,VWS V14.00,2013-01-25 03:12:00,
2013-01-24 22:17:00,17.3,2.7,30.38,NW,325,7.0,14.0,52,0.00,,---,0.00,VWS V14.00,2013-01-25 03:17:00,
2013-01-24 22:22:00,17.3,2.7,30.38,NW,319,8.0,13.0,52,0.00,,---,0.00,VWS V14.00,2013-01-25 03:22:00,
2013-01-24 22:27:00,17.3,3.1,30.39,WNW,283,4.0,8.0,53,0.00,,---,0.00,VWS V14.00,2013-01-25 03:27:00,
2013-01-24 22:32:00,17.3,3.1,30.38,NW,305,6.0,17.0,53,0.00,,---,0.00,VWS V14.00,2013-01-25 03:32:00,
2013-01-24 22:37:00,17.3,3.1,30.38,NW,321,11.0,12.0,53,0.00,,---,0.00,VWS V14.00,2013-01-25 03:37:00,
2013-01-24 22:42:00,17.3,3.1,30.38,NW,310,9.0,17.0,53,0.00,,---,0.00,VWS V14.00,2013-01-25 03:42:00,
2013-01-24 22:47:00,17.3,3.1,30.38,NW,306,6.0,15.0,53,0.00,,---,0.00,VWS V14.00,2013-01-25 03:47:00,
2013-01-24 22:52:00,17.3,3.1,30.39,NNW,334,8.0,9.0,53,0.00,,---,0.00,VWS V14.00,2013-01-25 03:52:00,
2013-01-24 22:57:00,17.3,3.1,30.39,NW,316,5.0,12.0,53,0.00,,---,0.00,VWS V14.00,2013-01-25 03:57:00,
2013-01-24 23:02:00,17.2,3.0,30.39,NW,315,7.0,15.0,53,0.00,,---,0.00,VWS V14.00,2013-01-25 04:02:00,
2013-01-24 23:07:00,17.2,3.0,30.39,NNW,348,6.0,9.0,53,0.00,,---,0.00,VWS V14.00,2013-01-25 04:07:00,
2013-01-24 23:12:00,17.1,2.9,30.39,NW,317,4.0,13.0,53,0.00,,---,0.00,VWS V14.00,2013-01-25 04:12:00,
2013-01-24 23:17:00,17.1,3.3,30.39,NW,307,9.0,16.0,54,0.00,,---,0.00,VWS V14.00,2013-01-25 04:17:00,
2013-01-24 23:22:00,17.1,2.9,30.39,NW,319,11.0,19.0,53,0.00,,---,0.00,VWS V14.00,2013-01-25 04:22:00,
2013-01-24 23:27:00,17.1,2.9,30.40,NW,312,11.0,13.0,53,0.00,,---,0.00,VWS V14.00,2013-01-25 04:27:00,
2013-01-24 23:32:00,17.2,3.0,30.39,NW,324,5.0,13.0,53,0.00,,---,0.00,VWS V14.00,2013-01-25 04:32:00,
2013-01-24 23:37:00,17.1,2.9,30.40,North,352,11.0,17.0,53,0.00,,---,0.00,VWS V14.00,2013-01-25 04:37:00,
2013-01-24 23:42:00,17.1,2.9,30.39,NW,319,6.0,13.0,53,0.00,,---,0.00,VWS V14.00,2013-01-25 04:42:00,
2013-01-24 23:47:00,17.0,2.8,30.39,WNW,291,13.0,15.0,53,0.00,,---,0.00,VWS V14.00,2013-01-25 04:47:00,
2013-01-24 23:52:00,17.0,3.2,30.40,West,280,7.0,12.0,54,0.00,,---,0.00,VWS V14.00,2013-01-25 04:52:00,
2013-01-24 23:57:00,16.9,3.1,30.40,NW,305,4.0,10.0,54,0.00,,---,0.00,VWS V14.00,2013-01-25 04:57:00,